Time;durP1;ratioP1;P1;durP2;ratioP2;P2;SDS_P1;SDS_P2;PMS_P1;PMS_P2;Temp;Humidity;BMP_temperature;BMP_pressure;BME280_temperature;BME280_humidity;BME280_pressure;Samples;Min_cycle;Max_cycle;Signal;HPM_P1;HPM_P2
2022/09/02 00:02:24;;;;;;;4.70;3.30;;;;;;;14.03;92.03;94830.80;1561909;91;21008;-54
2022/09/02 00:04:52;;;;;;;5.45;2.98;;;;;;;14.04;91.75;94835.11;1536219;92;21112;-53
2022/09/02 00:07:19;;;;;;;4.42;3.08;;;;;;;14.03;91.48;94833.57;1561445;92;21590;-54
2022/09/02 00:09:47;;;;;;;5.37;3.50;;;;;;;14.02;91.59;94836.94;1561308;91;21297;-54
2022/09/02 00:12:16;;;;;;;4.80;3.60;;;;;;;14.01;91.68;94834.66;1561272;92;21101;-54
2022/09/02 00:14:45;;;;;;;7.37;3.40;;;;;;;13.97;91.68;94832.69;1561301;90;21072;-54
2022/09/02 00:17:13;;;;;;;3.67;3.00;;;;;;;13.92;91.88;94828.55;1555778;92;21528;-54
2022/09/02 00:19:41;;;;;;;3.75;3.20;;;;;;;13.90;92.24;94826.86;1555817;92;21088;-54
2022/09/02 00:22:08;;;;;;;7.83;3.15;;;;;;;13.94;92.43;94826.08;1536222;92;21986;-55
2022/09/02 00:24:35;;;;;;;4.08;3.67;;;;;;;13.99;92.40;94823.30;1555916;92;20988;-53
2022/09/02 00:27:04;;;;;;;5.50;3.80;;;;;;;14.00;92.22;94828.98;1561632;90;21532;-53
2022/09/02 00:29:32;;;;;;;5.80;3.33;;;;;;;14.01;92.12;94827.75;1561379;92;21064;-54
2022/09/02 00:32:01;;;;;;;5.67;3.27;;;;;;;13.98;91.85;94831.45;1561292;92;21599;-53
2022/09/02 00:34:29;;;;;;;6.20;3.72;;;;;;;13.93;91.97;94832.84;1561317;91;21276;-53
2022/09/02 00:36:57;;;;;;;8.28;3.80;;;;;;;13.94;91.92;94837.14;1561545;91;20981;-54
2022/09/02 00:39:25;;;;;;;5.92;3.80;;;;;;;13.98;91.78;94834.22;1536404;92;21008;-54
2022/09/02 00:41:52;;;;;;;6.65;3.80;;;;;;;14.01;91.35;94833.28;1561396;92;21535;-54
2022/09/02 00:44:20;;;;;;;7.87;3.55;;;;;;;13.99;91.24;94830.97;1561296;92;21095;-54
2022/09/02 00:46:48;;;;;;;5.67;3.40;;;;;;;13.99;91.23;94830.22;1561794;90;21217;-54
2022/09/02 00:49:28;;;;;;;5.40;3.50;;;;;;;13.96;91.20;94835.30;1561338;91;21001;-54
2022/09/02 00:52:07;;;;;;;8.95;3.80;;;;;;;13.95;91.57;94833.74;1561550;91;21049;-54
2022/09/02 00:54:42;;;;;;;8.60;4.22;;;;;;;13.93;91.86;94830.08;1561317;92;20997;-54
2022/09/02 00:57:16;;;;;;;4.97;3.40;;;;;;;13.94;92.42;94830.83;1561149;92;21020;-55
2022/09/02 01:00:02;;;;;;;5.22;2.92;;;;;;;13.96;92.55;94833.92;1575652;91;21258;-54
2022/09/02 01:02:30;;;;;;;6.12;3.40;;;;;;;13.96;92.53;94831.91;1557333;92;21148;-54
2022/09/02 01:05:00;;;;;;;4.62;3.33;;;;;;;13.94;92.82;94833.59;1575795;90;20997;-54
2022/09/02 01:07:30;;;;;;;4.22;3.25;;;;;;;13.96;93.04;94829.77;1561578;92;21500;-55
2022/09/02 01:10:00;;;;;;;4.70;3.17;;;;;;;13.97;93.27;94827.91;1561400;92;20997;-54
2022/09/02 01:12:29;;;;;;;8.75;3.40;;;;;;;14.01;93.17;94834.66;1561387;92;21902;-54
2022/09/02 01:14:57;;;;;;;5.08;3.40;;;;;;;14.09;92.90;94837.23;1561294;90;21029;-54
2022/09/02 01:17:25;;;;;;;4.67;3.50;;;;;;;14.10;92.70;94836.00;1561367;91;21016;-54
2022/09/02 01:19:57;;;;;;;5.92;3.67;;;;;;;14.07;92.31;94830.02;1575893;90;21548;-54
2022/09/02 01:22:27;;;;;;;5.12;3.83;;;;;;;14.07;92.64;94832.78;1561801;92;21013;-54
2022/09/02 01:24:56;;;;;;;6.00;3.60;;;;;;;14.09;92.33;94834.47;1575987;90;21802;-54
2022/09/02 01:27:24;;;;;;;9.43;3.80;;;;;;;14.06;91.97;94838.17;1561473;92;21097;-54
2022/09/02 01:29:55;;;;;;;11.85;4.55;;;;;;;14.01;92.02;94832.64;1561256;90;21068;-55
2022/09/02 01:32:23;;;;;;;6.17;3.70;;;;;;;14.00;92.29;94840.05;1561491;92;21064;-53
2022/09/02 01:34:50;;;;;;;9.78;3.72;;;;;;;13.95;92.29;94836.51;1561289;90;21112;-54
2022/09/02 01:37:19;;;;;;;10.30;3.40;;;;;;;13.90;92.42;94834.37;1561397;92;21847;-53
2022/09/02 01:39:47;;;;;;;6.58;3.45;;;;;;;13.89;92.53;94833.63;1561234;92;20993;-54
2022/09/02 01:42:14;;;;;;;5.17;2.80;;;;;;;13.87;92.72;94830.56;1562579;91;21012;-54
2022/09/02 01:44:45;;;;;;;8.10;3.33;;;;;;;13.89;93.05;94828.70;1555817;92;21064;-54
2022/09/02 01:47:14;;;;;;;6.47;3.52;;;;;;;13.90;93.03;94830.23;1561337;92;21719;-54
2022/09/02 01:49:42;;;;;;;7.15;3.52;;;;;;;13.90;92.92;94826.08;1561327;92;21266;-54
2022/09/02 01:52:12;;;;;;;7.17;3.92;;;;;;;13.90;92.83;94828.25;1561239;92;21056;-55
2022/09/02 01:54:40;;;;;;;6.50;3.70;;;;;;;13.95;93.03;94833.14;1561249;92;21090;-55
2022/09/02 01:57:08;;;;;;;6.85;3.87;;;;;;;13.96;93.14;94831.16;1561283;91;21057;-54
2022/09/02 01:59:36;;;;;;;5.85;3.45;;;;;;;13.98;93.61;94826.66;1561470;92;21130;-54
2022/09/02 02:02:04;;;;;;;7.08;4.28;;;;;;;13.99;93.29;94835.12;1561361;92;21280;-54
2022/09/02 02:04:32;;;;;;;5.17;3.75;;;;;;;13.97;93.22;94836.83;1561609;92;21536;-55
2022/09/02 02:07:00;;;;;;;11.95;3.50;;;;;;;13.96;93.19;94833.92;1561251;92;21116;-53
2022/09/02 02:09:28;;;;;;;3.55;3.05;;;;;;;13.97;93.21;94838.22;1536247;92;21017;-53
2022/09/02 02:11:57;;;;;;;5.25;3.92;;;;;;;13.95;93.41;94833.14;1575858;90;21000;-53
2022/09/02 02:14:25;;;;;;;9.55;3.45;;;;;;;13.95;93.46;94838.67;1561430;90;21832;-54
2022/09/02 02:16:54;;;;;;;9.83;3.95;;;;;;;13.90;93.35;94837.14;1561212;91;21560;-55
2022/09/02 02:19:21;;;;;;;6.42;3.62;;;;;;;13.85;93.84;94843.31;1561578;92;21024;-54
2022/09/02 02:21:48;;;;;;;8.38;5.62;;;;;;;13.82;93.81;94847.77;1561276;92;21045;-55
2022/09/02 02:24:16;;;;;;;10.10;5.55;;;;;;;13.79;94.10;94843.80;1561256;92;21036;-54
2022/09/02 02:26:44;;;;;;;9.08;5.35;;;;;;;13.83;94.48;94836.11;1561346;90;21175;-54
2022/09/02 02:29:12;;;;;;;9.90;5.35;;;;;;;13.90;94.43;94844.06;1576219;90;21068;-55
2022/09/02 02:31:40;;;;;;;11.68;5.03;;;;;;;13.95;94.15;94842.04;1561330;92;21124;-54
2022/09/02 02:34:09;;;;;;;7.42;4.87;;;;;;;13.98;93.91;94840.50;1561290;92;21525;-54
2022/09/02 02:36:38;;;;;;;9.10;5.30;;;;;;;14.01;93.56;94838.81;1561608;92;21000;-54
2022/09/02 02:39:08;;;;;;;7.53;5.17;;;;;;;14.00;93.44;94835.89;1561257;92;21320;-54
2022/09/02 02:41:37;;;;;;;5.20;4.60;;;;;;;14.00;93.50;94828.98;1561325;92;21045;-54
2022/09/02 02:44:05;;;;;;;7.03;4.78;;;;;;;13.98;93.35;94828.69;1561285;92;21049;-54
2022/09/02 02:46:35;;;;;;;8.15;4.60;;;;;;;13.92;93.27;94833.30;1576042;89;21053;-54
2022/09/02 02:49:04;;;;;;;5.78;4.55;;;;;;;13.85;93.28;94838.53;1576117;89;21609;-54
2022/09/02 02:51:33;;;;;;;9.13;5.83;;;;;;;13.83;93.51;94843.02;1561217;90;21442;-53
2022/09/02 02:54:02;;;;;;;5.95;4.78;;;;;;;13.81;93.75;94826.13;1561190;92;21032;-53
2022/09/02 02:56:30;;;;;;;6.75;4.72;;;;;;;13.80;94.13;94832.89;1576002;90;21530;-53
2022/09/02 02:59:02;;;;;;;7.42;4.78;;;;;;;13.82;94.56;94831.17;1536272;92;21020;-54
2022/09/02 03:01:30;;;;;;;6.75;3.95;;;;;;;13.87;94.66;94828.41;1537141;92;21183;-54
2022/09/02 03:03:58;;;;;;;9.20;4.08;;;;;;;13.95;94.52;94829.59;1561628;92;21148;-52
2022/09/02 03:06:28;;;;;;;10.63;4.00;;;;;;;14.01;93.93;94830.52;1561334;92;21017;-55
2022/09/02 03:08:57;;;;;;;11.20;4.25;;;;;;;14.02;93.62;94829.27;1561711;92;21054;-53
2022/09/02 03:11:27;;;;;;;9.65;4.17;;;;;;;14.04;93.63;94826.20;1561426;91;21020;-55
2022/09/02 03:13:55;;;;;;;4.62;3.80;;;;;;;14.05;93.22;94829.72;1561472;92;21001;-53
2022/09/02 03:16:23;;;;;;;5.45;4.45;;;;;;;14.03;93.04;94830.80;1561476;90;21275;-54
2022/09/02 03:18:51;;;;;;;8.33;4.08;;;;;;;14.01;93.14;94824.34;1561402;91;21099;-54
2022/09/02 03:21:19;;;;;;;3.40;3.10;;;;;;;14.02;93.05;94825.13;1561539;92;21492;-53
2022/09/02 03:23:47;;;;;;;6.17;3.60;;;;;;;13.98;92.98;94824.53;1561367;92;21497;-54
2022/09/02 03:26:19;;;;;;;5.62;3.80;;;;;;;13.98;93.59;94834.22;1561480;92;20993;-53
2022/09/02 03:28:47;;;;;;;7.50;3.70;;;;;;;13.98;93.48;94826.66;1555896;92;21146;-54
2022/09/02 03:31:17;;;;;;;6.35;3.52;;;;;;;13.98;93.34;94825.91;1561364;92;21206;-54
2022/09/02 03:33:45;;;;;;;4.80;3.30;;;;;;;13.98;93.23;94824.53;1561605;92;21016;-55
2022/09/02 03:36:30;;;;;;;4.75;3.52;;;;;;;13.99;93.41;94826.06;1561449;90;21056;-53
2022/09/02 03:38:58;;;;;;;4.70;3.33;;;;;;;14.01;93.43;94829.12;1546281;91;21516;-54
2022/09/02 03:41:27;;;;;;;5.58;3.37;;;;;;;14.06;93.26;94832.64;1561585;91;21541;-54
2022/09/02 03:43:55;;;;;;;6.87;4.00;;;;;;;14.09;92.89;94831.09;1561280;92;21049;-54
2022/09/02 03:46:22;;;;;;;5.00;3.58;;;;;;;14.07;92.50;94837.71;1561330;90;21056;-54
2022/09/02 03:48:50;;;;;;;7.80;3.55;;;;;;;14.07;92.69;94837.71;1561301;92;21009;-55
2022/09/02 03:51:20;;;;;;;6.40;3.37;;;;;;;14.07;92.78;94843.25;1561425;92;21484;-54
2022/09/02 03:53:48;;;;;;;6.00;3.33;;;;;;;14.12;92.60;94842.60;1576210;90;21199;-54
2022/09/02 03:56:16;;;;;;;7.70;4.37;;;;;;;14.12;92.05;94840.44;1561259;90;21147;-53
2022/09/02 03:58:45;;;;;;;6.17;4.45;;;;;;;14.07;91.95;94845.23;1561419;92;21060;-54
2022/09/02 04:01:16;;;;;;;8.18;4.10;;;;;;;14.05;92.53;94842.17;1561563;92;21068;-55
2022/09/02 04:03:44;;;;;;;10.00;4.50;;;;;;;14.06;92.66;94847.25;1561598;90;21492;-54
2022/09/02 04:06:12;;;;;;;6.28;4.00;;;;;;;14.03;92.57;94847.41;1561564;92;21190;-54
2022/09/02 04:08:43;;;;;;;8.43;4.10;;;;;;;14.04;92.70;94843.41;1561243;90;21040;-53
2022/09/02 04:11:16;;;;;;;5.28;3.85;;;;;;;14.05;92.87;94841.56;1561371;92;21120;-53
2022/09/02 04:13:46;;;;;;;8.25;4.00;;;;;;;14.04;92.52;94843.41;1576043;90;21056;-55
2022/09/02 04:16:18;;;;;;;9.03;3.95;;;;;;;14.00;92.70;94840.05;1561734;90;21453;-54
2022/09/02 04:18:45;;;;;;;4.10;3.70;;;;;;;14.04;92.86;94846.95;1561446;92;21265;-54
2022/09/02 04:21:13;;;;;;;4.03;3.62;;;;;;;14.11;93.12;94848.59;1561339;92;21040;-53
2022/09/02 04:23:42;;;;;;;6.55;3.50;;;;;;;14.16;92.67;94839.70;1561324;92;21108;-55
2022/09/02 04:26:12;;;;;;;5.20;3.95;;;;;;;14.13;92.23;94841.37;1576120;90;21579;-54
2022/09/02 04:28:40;;;;;;;8.75;4.03;;;;;;;14.08;92.60;94850.31;1561371;91;21091;-54
2022/09/02 04:31:10;;;;;;;7.47;4.35;;;;;;;14.06;93.00;94850.02;1561293;92;21484;-54
2022/09/02 04:33:38;;;;;;;6.58;4.35;;;;;;;14.02;92.84;94849.39;1556267;92;21045;-54
2022/09/02 04:36:08;;;;;;;6.20;3.92;;;;;;;14.01;92.75;94849.88;1561318;92;21040;-54
2022/09/02 04:38:37;;;;;;;6.33;3.95;;;;;;;13.99;93.04;94848.95;1561642;90;21020;-54
2022/09/02 04:41:21;;;;;;;7.87;3.90;;;;;;;13.99;93.38;94846.81;1561336;91;21008;-54
2022/09/02 04:43:51;;;;;;;6.33;3.98;;;;;;;14.00;93.47;94849.73;1560927;92;21140;-55
2022/09/02 04:46:19;;;;;;;5.78;4.50;;;;;;;13.97;93.36;94845.12;1576018;90;21045;-54
2022/09/02 04:48:47;;;;;;;7.90;5.22;;;;;;;13.91;93.50;94843.61;1561454;91;21025;-55
2022/09/02 04:51:17;;;;;;;7.97;5.40;;;;;;;13.88;93.66;94843.77;1536270;92;21012;-54
2022/09/02 04:53:45;;;;;;;7.70;4.83;;;;;;;13.90;94.12;94845.44;1576010;90;21024;-54
2022/09/02 04:56:16;;;;;;;6.58;4.62;;;;;;;13.95;93.97;94846.19;1561287;92;21125;-55
2022/09/02 04:58:45;;;;;;;9.00;4.30;;;;;;;13.96;93.94;94850.52;1561437;92;21084;-55
2022/09/02 05:01:16;;;;;;;6.03;3.72;;;;;;;13.95;94.17;94844.80;1561289;92;21607;-56
2022/09/02 05:03:44;;;;;;;6.33;4.25;;;;;;;14.00;94.03;94848.34;1576009;89;21060;-52
2022/09/02 05:06:15;;;;;;;14.87;4.70;;;;;;;14.05;93.78;94853.23;1561291;92;21072;-53
2022/09/02 05:08:46;;;;;;;8.13;4.20;;;;;;;14.09;93.55;94853.23;1561530;91;21048;-53
2022/09/02 05:11:18;;;;;;;16.97;9.40;;;;;;;14.11;93.37;94852.14;1561181;92;21060;-51
2022/09/02 05:13:52;;;;;;;13.68;6.92;;;;;;;14.13;93.24;94848.89;1563776;90;21008;-53
2022/09/02 05:16:26;;;;;;;9.65;5.50;;;;;;;14.14;93.05;94846.30;1544890;90;21630;-53
2022/09/02 05:18:55;;;;;;;11.73;5.10;;;;;;;14.14;92.76;94843.53;1577176;91;21499;-53
2022/09/02 05:21:24;;;;;;;9.13;5.00;;;;;;;14.17;92.38;94849.55;1572358;91;21241;-53
2022/09/02 05:23:53;;;;;;;8.85;4.55;;;;;;;14.19;92.28;94847.07;1574668;90;21189;-51
2022/09/02 05:26:21;;;;;;;7.47;5.60;;;;;;;14.18;92.14;94846.29;1559775;89;21592;-51
2022/09/02 05:28:49;;;;;;;8.85;4.70;;;;;;;14.16;92.18;94850.14;1588054;89;21016;-53
2022/09/02 05:31:19;;;;;;;7.53;4.80;;;;;;;14.16;92.15;94842.48;1575939;90;21603;-54
2022/09/02 05:33:48;;;;;;;13.08;5.25;;;;;;;14.18;92.22;94842.14;1617857;87;21233;-52
2022/09/02 05:36:19;;;;;;;10.43;5.58;;;;;;;14.18;92.20;94837.23;1608828;87;21159;-53
2022/09/02 05:38:47;;;;;;;7.70;5.70;;;;;;;14.20;92.32;94837.53;1605968;87;21068;-54
2022/09/02 05:41:21;;;;;;;7.37;5.20;;;;;;;14.20;91.98;94841.05;1604190;87;21015;-54
2022/09/02 05:43:49;;;;;;;8.38;5.87;;;;;;;14.20;91.67;94836.91;1607953;87;21146;-56
2022/09/02 05:46:18;;;;;;;24.10;8.95;;;;;;;14.19;91.44;94836.75;1584827;88;21414;-56
2022/09/02 05:51:43;;;;;;;7.12;5.55;;;;;;;14.22;91.87;94848.89;1618148;87;21311;-55
2022/09/02 05:54:16;;;;;;;21.70;7.12;;;;;;;14.28;91.91;94852.55;1599913;87;21083;-58
2022/09/02 05:56:47;;;;;;;6.65;4.58;;;;;;;14.35;91.60;94850.84;1609784;87;21113;-58
2022/09/02 05:59:14;;;;;;;7.37;4.40;;;;;;;14.39;91.24;94845.91;1589513;87;21298;-58
2022/09/02 06:01:43;;;;;;;10.10;5.35;;;;;;;14.40;91.16;94852.34;1594680;86;21545;-58
2022/09/02 06:04:11;;;;;;;8.30;3.95;;;;;;;14.40;90.96;94851.58;1618415;87;21117;-58
2022/09/02 06:06:41;;;;;;;12.18;9.20;;;;;;;14.37;91.05;94846.98;1598458;88;21244;-57
2022/09/02 06:09:12;;;;;;;9.75;6.25;;;;;;;14.33;91.32;94842.25;1590060;87;21127;-59
2022/09/02 06:11:43;;;;;;;9.58;5.12;;;;;;;14.33;91.49;94847.16;1544650;90;21288;-54
2022/09/02 06:14:12;;;;;;;6.50;4.00;;;;;;;14.32;91.61;94842.10;1549589;90;21179;-55
2022/09/02 06:16:43;;;;;;;10.75;4.33;;;;;;;14.32;91.59;94843.48;1556763;90;21406;-57
2022/09/02 06:19:12;;;;;;;11.05;4.10;;;;;;;14.33;91.60;94845.02;1563080;89;21232;-58
2022/09/02 06:21:42;;;;;;;11.78;4.85;;;;;;;14.34;91.55;94842.40;1565407;90;21038;-58
2022/09/02 06:24:12;;;;;;;7.35;4.08;;;;;;;14.38;91.64;94846.50;1533838;89;21250;-61
2022/09/02 06:26:41;;;;;;;6.22;4.03;;;;;;;14.48;91.34;94843.22;1569741;90;21047;-59
2022/09/02 06:29:12;;;;;;;5.33;3.80;;;;;;;14.59;90.77;94846.88;1576320;90;21169;-61
2022/09/02 06:31:42;;;;;;;7.47;4.10;;;;;;;14.72;90.33;94845.41;1577390;89;21167;-63
2022/09/02 06:34:13;;;;;;;5.22;3.25;;;;;;;14.83;89.83;94849.03;1546903;90;21127;-60
2022/09/02 06:36:42;;;;;;;6.78;3.98;;;;;;;14.91;88.63;94850.97;1577642;88;21268;-58
2022/09/02 06:39:11;;;;;;;8.95;4.17;;;;;;;14.94;88.27;94854.78;1538498;90;21105;-57
2022/09/02 06:41:40;;;;;;;13.43;3.87;;;;;;;15.00;87.88;94855.05;1570862;89;22272;-55
2022/09/02 06:44:10;;;;;;;5.55;3.98;;;;;;;15.03;87.21;94848.56;1557113;90;21080;-54
2022/09/02 06:46:46;;;;;;;12.15;3.50;;;;;;;15.05;86.67;94855.80;1552259;91;21044;-59
2022/09/02 06:49:13;;;;;;;6.65;3.33;;;;;;;15.04;86.48;94848.70;1543440;91;21557;-57
2022/09/02 06:51:44;;;;;;;6.55;3.58;;;;;;;15.10;86.04;94850.20;1558717;90;21072;-56
2022/09/02 06:54:15;;;;;;;9.70;4.22;;;;;;;15.11;85.97;94853.91;1560600;90;21617;-56
2022/09/02 06:56:43;;;;;;;8.80;3.87;;;;;;;15.12;85.90;94851.28;1561740;90;21633;-57
2022/09/02 06:59:13;;;;;;;7.22;3.92;;;;;;;15.11;85.76;94846.98;1564022;90;49430;-60
2022/09/02 07:01:45;;;;;;;5.60;4.47;;;;;;;15.12;86.03;94860.98;1564126;90;21936;-59
2022/09/02 07:07:05;;;;;;;9.35;3.75;;;;;;;15.14;86.01;94857.11;1588509;88;21062;-61
2022/09/02 07:09:36;;;;;;;7.67;5.33;;;;;;;15.09;86.01;94851.45;1560917;90;21143;-57
2022/09/02 07:12:08;;;;;;;;;;;;;;;15.12;86.26;94849.89;1542910;89;21414;-60
2022/09/02 07:14:40;;;;;;;5.42;3.20;;;;;;;15.13;86.28;94845.88;1567914;90;21285;-60
2022/09/02 07:17:09;;;;;;;4.97;3.40;;;;;;;15.17;86.04;94852.00;1549929;90;21140;-60
2022/09/02 07:19:36;;;;;;;8.33;4.22;;;;;;;15.22;85.88;94855.50;1538647;91;21543;-57
2022/09/02 07:22:05;;;;;;;7.30;4.53;;;;;;;15.20;85.53;94849.66;1564257;90;21096;-55
2022/09/02 07:24:32;;;;;;;14.10;4.15;;;;;;;15.20;85.43;94845.50;1557963;89;21584;-58
2022/09/02 07:27:01;;;;;;;8.30;4.05;;;;;;;15.25;85.38;94852.41;1562429;90;21338;-57
2022/09/02 07:29:29;;;;;;;4.75;4.08;;;;;;;15.29;85.48;94841.31;1569655;90;21937;-58
2022/09/02 07:31:57;;;;;;;9.45;3.35;;;;;;;15.36;85.21;94847.12;1602636;88;21096;-58
2022/09/02 07:34:25;;;;;;;9.28;3.98;;;;;;;15.40;85.13;94834.58;1603939;88;21071;-58
2022/09/02 07:36:52;;;;;;;7.92;4.20;;;;;;;15.45;84.92;94847.03;1601566;86;21055;-54
2022/09/02 07:39:21;;;;;;;4.85;4.00;;;;;;;15.52;84.71;94847.42;1604282;87;21788;-58
2022/09/02 07:41:54;;;;;;;12.73;4.20;;;;;;;15.62;84.61;94850.88;1606091;87;21095;-57
2022/09/02 07:44:28;;;;;;;5.62;4.55;;;;;;;15.67;83.85;94848.20;1602263;87;21054;-56
2022/09/02 07:46:55;;;;;;;3.87;3.47;;;;;;;15.71;83.76;94848.78;1614465;87;21130;-56
2022/09/02 07:49:24;;;;;;;6.25;3.83;;;;;;;15.77;83.40;94846.86;1613317;87;21167;-57
2022/09/02 07:51:52;;;;;;;7.25;4.58;;;;;;;15.81;82.84;94847.45;1607759;87;21231;-56
2022/09/02 07:54:22;;;;;;;11.78;4.12;;;;;;;15.87;82.83;94845.53;1607566;88;21089;-58
2022/09/02 07:56:52;;;;;;;8.58;4.35;;;;;;;15.87;82.22;94850.33;1608210;87;21095;-58
2022/09/02 07:59:20;;;;;;;5.67;4.10;;;;;;;15.85;81.95;94844.47;1607374;86;21180;-58
2022/09/02 08:01:50;;;;;;;5.25;4.60;;;;;;;15.84;81.58;94849.27;1594034;86;21049;-56
2022/09/02 08:04:20;;;;;;;7.37;4.47;;;;;;;15.85;81.33;94846.64;1582913;89;21369;-57
2022/09/02 08:06:51;;;;;;;15.40;5.75;;;;;;;15.83;81.46;94850.52;1573410;89;22489;-58
2022/09/02 08:09:18;;;;;;;11.28;4.08;;;;;;;15.82;81.73;94850.38;1584088;89;21036;-60
2022/09/02 08:11:48;;;;;;;5.70;3.80;;;;;;;15.79;81.20;94847.78;1582702;88;21146;-56
2022/09/02 08:14:23;;;;;;;4.30;3.60;;;;;;;15.78;81.28;94848.42;1616455;87;21002;-59
2022/09/02 08:16:52;;;;;;;18.67;10.50;;;;;;;15.77;81.24;94845.47;1633408;86;21304;-55
2022/09/02 08:19:21;;;;;;;11.50;5.15;;;;;;;15.79;81.24;94848.56;1609964;88;21117;-57
2022/09/02 08:21:49;;;;;;;5.78;3.70;;;;;;;15.86;81.22;94852.33;1608718;88;20999;-56
2022/09/02 08:24:17;;;;;;;10.13;4.78;;;;;;;15.90;79.89;94851.51;1617208;87;21065;-55
2022/09/02 08:26:45;;;;;;;5.83;3.80;;;;;;;15.87;79.57;94849.70;1615193;87;21735;-55
2022/09/02 08:29:14;;;;;;;7.25;3.50;;;;;;;15.83;78.65;94852.51;1606715;87;21137;-62
2022/09/02 08:31:42;;;;;;;5.55;3.17;;;;;;;15.80;77.91;94847.92;1607036;87;21082;-55
2022/09/02 08:34:09;;;;;;;13.08;3.72;;;;;;;15.77;77.68;94851.66;1610014;87;21042;-57
2022/09/02 08:36:38;;;;;;;10.10;3.60;;;;;;;15.77;77.50;94848.24;1603807;87;21059;-56
2022/09/02 08:39:07;;;;;;;5.60;3.27;;;;;;;15.76;77.23;94851.52;1607319;88;21087;-55
2022/09/02 08:41:46;;;;;;;8.78;4.12;;;;;;;15.76;76.80;94851.52;1603928;87;21723;-55
2022/09/02 08:44:18;;;;;;;7.10;4.55;;;;;;;15.77;76.54;94852.41;1608883;86;21072;-54
2022/09/02 08:46:48;;;;;;;6.37;3.72;;;;;;;15.79;76.16;94846.39;1622656;87;21608;-54
2022/09/02 08:49:34;;;;;;;4.85;3.70;;;;;;;15.76;75.56;94848.10;1622537;87;21205;-55
2022/09/02 08:52:03;;;;;;;7.70;3.30;;;;;;;15.67;75.85;94848.20;1608670;87;21160;-54
2022/09/02 08:54:45;;;;;;;7.60;3.00;;;;;;;15.59;76.41;94855.99;1604137;87;21263;-56
2022/09/02 08:57:13;;;;;;;12.37;5.70;;;;;;;15.61;76.69;94851.52;1606644;87;21548;-57
2022/09/02 08:59:42;;;;;;;8.83;3.83;;;;;;;15.61;76.89;94850.73;1598874;88;21043;-57
2022/09/02 09:02:44;;;;;;;5.42;3.87;;;;;;;15.58;76.75;94855.22;1588758;88;21923;-56
2022/09/02 09:05:22;;;;;;;7.03;3.80;;;;;;;15.60;76.81;94852.75;1609848;87;21146;-56
2022/09/02 09:08:17;;;;;;;8.38;3.65;;;;;;;15.62;76.88;94861.36;1614737;87;21265;-55
2022/09/02 09:11:02;;;;;;;40.85;15.05;;;;;;;15.64;77.14;94860.27;1579638;88;21045;-54
2022/09/02 09:13:44;;;;;;;23.47;10.60;;;;;;;15.61;76.40;94859.83;1579979;89;21179;-56
2022/09/02 09:16:35;;;;;;;7.87;4.47;;;;;;;15.59;76.04;94862.31;1584551;89;21086;-56
2022/09/02 09:19:08;;;;;;;11.30;5.40;;;;;;;15.56;74.96;94859.09;1574181;88;21049;-56
2022/09/02 09:21:36;;;;;;;8.45;4.37;;;;;;;15.49;74.61;94858.69;1547370;89;21177;-56
2022/09/02 09:24:26;;;;;;;10.03;4.25;;;;;;;15.45;74.35;94858.89;1578441;89;21040;-55
2022/09/02 09:26:57;;;;;;;8.03;4.70;;;;;;;15.36;74.45;94863.12;1578190;89;21130;-55
2022/09/02 09:29:23;;;;;;;5.65;3.60;;;;;;;15.34;74.99;94864.22;1585697;89;21113;-56
2022/09/02 09:31:57;;;;;;;7.03;3.25;;;;;;;15.34;74.84;94857.92;1576798;89;21167;-55
2022/09/02 09:34:45;;;;;;;4.72;3.33;;;;;;;15.32;75.00;94850.70;1559826;89;21183;-56
2022/09/02 09:37:30;;;;;;;9.78;4.17;;;;;;;15.31;75.33;94851.31;1582383;88;21121;-56
2022/09/02 09:39:57;;;;;;;7.22;4.00;;;;;;;15.31;75.35;94850.53;1570046;88;21048;-56
2022/09/02 09:42:32;;;;;;;5.67;3.55;;;;;;;15.30;75.29;94858.70;1574835;89;21114;-59
2022/09/02 09:45:02;;;;;;;6.80;3.12;;;;;;;15.27;75.12;94859.02;1582144;89;21163;-56
2022/09/02 09:47:30;;;;;;;5.15;3.62;;;;;;;15.24;75.33;94856.42;1586675;89;21344;-55
2022/09/02 09:50:17;;;;;;;5.33;3.50;;;;;;;15.16;75.18;94860.17;1568260;90;21068;-56
2022/09/02 09:52:46;;;;;;;5.20;4.22;;;;;;;15.08;75.41;94852.09;1566391;90;21640;-56
2022/09/02 09:55:19;;;;;;;4.92;3.00;;;;;;;15.05;75.73;94856.41;1571462;90;21451;-55
2022/09/02 09:57:48;;;;;;;5.67;3.17;;;;;;;15.02;75.98;94859.50;1574937;89;21128;-57
2022/09/02 10:00:32;;;;;;;6.78;3.50;;;;;;;14.97;76.62;94862.17;1574825;89;21292;-55
2022/09/02 10:03:03;;;;;;;5.22;3.60;;;;;;;14.90;76.67;94852.82;1602491;89;21096;-57
2022/09/02 10:05:35;;;;;;;4.85;3.30;;;;;;;14.88;77.35;94849.76;1558610;90;22063;-56
2022/09/02 10:08:05;;;;;;;7.40;3.83;;;;;;;14.89;77.91;94854.84;1572656;89;21548;-56
2022/09/02 10:10:34;;;;;;;4.58;3.52;;;;;;;14.93;78.69;94853.25;1607418;88;21048;-55
2022/09/02 10:13:24;;;;;;;5.70;3.80;;;;;;;14.95;78.58;94854.94;1588970;88;21134;-57
2022/09/02 10:16:00;;;;;;;7.55;3.80;;;;;;;14.98;79.11;94850.61;1607172;87;20984;-56
2022/09/02 10:18:45;;;;;;;8.90;4.37;;;;;;;15.02;78.84;94849.05;1625199;87;21059;-55
2022/09/02 10:21:33;;;;;;;4.47;3.90;;;;;;;15.08;79.23;94849.31;1624581;87;20992;-56
2022/09/02 10:24:30;;;;;;;9.35;3.90;;;;;;;15.16;79.37;94853.88;1598877;88;21154;-55
2022/09/02 10:26:58;;;;;;;4.70;3.70;;;;;;;15.20;79.38;94851.69;1603760;88;21246;-55
2022/09/02 10:29:52;;;;;;;6.35;4.37;;;;;;;15.24;78.83;94850.27;1620426;87;21597;-56
2022/09/02 10:32:53;;;;;;;6.15;4.20;;;;;;;15.28;79.01;94845.91;1567860;91;21860;-57
2022/09/02 10:35:43;;;;;;;9.53;4.55;;;;;;;15.37;79.71;94847.27;1568120;90;21116;-56
2022/09/02 10:38:41;;;;;;;10.13;4.28;;;;;;;15.44;79.21;94850.44;1596839;87;21104;-55
2022/09/02 10:41:45;;;;;;;8.53;4.83;;;;;;;15.46;79.11;94847.95;1613932;87;21269;-57
2022/09/02 10:44:32;;;;;;;;;;;;;;;15.51;79.59;94845.89;1596079;88;21560;-57
2022/09/02 10:47:04;;;;;;;5.40;3.80;;;;;;;15.60;79.50;94845.05;1598689;88;20183;-58
2022/09/02 10:50:13;;;;;;;4.35;3.90;;;;;;;15.64;80.10;94850.55;1588383;88;21091;-57
2022/09/02 10:52:52;;;;;;;4.47;3.50;;;;;;;15.67;80.32;94844.05;1530619;91;21558;-56
2022/09/02 10:55:51;;;;;;;5.60;3.40;;;;;;;15.74;80.65;94842.27;1600161;88;21171;-58
2022/09/02 10:58:54;;;;;;;3.90;2.92;;;;;;;15.80;80.13;94844.54;1568189;90;21080;-57
2022/09/02 11:01:28;;;;;;;5.92;3.50;;;;;;;15.88;80.13;94843.54;1520833;91;21171;-56
2022/09/02 11:04:07;;;;;;;5.58;3.75;;;;;;;15.95;80.19;94846.67;1594174;89;21133;-58
2022/09/02 11:06:40;;;;;;;4.03;3.12;;;;;;;16.01;80.27;94846.16;1592928;88;21561;-58
2022/09/02 11:09:12;;;;;;;4.58;3.30;;;;;;;16.01;79.59;94844.77;1618903;87;22234;-56
2022/09/02 11:11:47;;;;;;;3.60;3.17;;;;;;;15.99;79.31;94843.09;1615951;87;26968;-55
2022/09/02 11:14:23;;;;;;;4.47;2.95;;;;;;;15.92;79.24;94848.27;1596015;88;21119;-59
2022/09/02 11:17:16;;;;;;;4.97;3.22;;;;;;;15.87;79.60;94842.02;1607312;87;21102;-58
2022/09/02 11:19:54;;;;;;;7.00;3.20;;;;;;;15.83;80.18;94841.41;1558394;91;21138;-58
2022/09/02 11:22:37;;;;;;;4.92;3.72;;;;;;;15.79;79.84;94838.07;1550695;91;21252;-57
2022/09/02 11:25:19;;;;;;;6.37;3.83;;;;;;;15.77;80.25;94844.08;1552778;89;21134;-55
2022/09/02 11:27:59;;;;;;;7.75;4.28;;;;;;;15.76;80.36;94837.01;1549481;89;21068;-56
2022/09/02 11:30:41;;;;;;;6.17;3.60;;;;;;;15.78;80.84;94839.31;1572230;90;21135;-57
2022/09/02 11:33:30;;;;;;;5.60;3.75;;;;;;;15.85;81.24;94841.70;1581286;89;21116;-56
2022/09/02 11:35:58;;;;;;;5.92;4.20;;;;;;;15.87;81.52;94834.44;1560501;89;21436;-57
2022/09/02 11:38:38;;;;;;;6.70;3.40;;;;;;;15.88;82.05;94840.13;1573911;89;21567;-57
2022/09/02 11:41:39;;;;;;;5.08;3.50;;;;;;;15.91;82.80;94842.58;1599539;87;21108;-55
2022/09/02 11:44:32;;;;;;;4.25;3.33;;;;;;;15.95;82.17;94836.95;1605749;87;21880;-55
2022/09/02 11:47:28;;;;;;;5.00;3.50;;;;;;;15.91;81.79;94836.39;1615538;87;21572;-56
2022/09/02 11:50:20;;;;;;;3.55;3.25;;;;;;;15.86;82.15;94834.30;1608613;87;21247;-60
2022/09/02 11:53:13;;;;;;;;;;;;;;;15.83;82.91;94834.48;1623274;87;21176;-56
2022/09/02 11:56:06;;;;;;;5.10;3.00;;;;;;;15.72;83.48;94830.89;1596724;88;20237;-56
2022/09/02 11:58:39;;;;;;;4.20;2.87;;;;;;;15.68;84.03;94823.99;1601333;88;21089;-55
2022/09/02 12:01:36;;;;;;;3.90;3.17;;;;;;;15.63;83.95;94824.06;1578904;89;22102;-55
2022/09/02 12:04:17;;;;;;;5.67;2.90;;;;;;;15.60;84.15;94821.47;1561626;89;21395;-56
2022/09/02 12:07:09;;;;;;;5.20;3.20;;;;;;;15.51;84.46;94811.87;1591297;89;21076;-55